createdAt,value
2023-05-05T00:00:23.959Z,1031.00
2023-05-05T00:01:23.914Z,1026.00
2023-05-05T00:02:23.962Z,1023.00
2023-05-05T00:03:24.077Z,1021.00
2023-05-05T00:04:24.007Z,1023.00
2023-05-05T00:05:24.738Z,1023.00
2023-05-05T00:06:23.955Z,1026.00
2023-05-05T00:07:23.977Z,1027.00
2023-05-05T00:08:23.977Z,1024.00
2023-05-05T00:09:24.015Z,1025.00
2023-05-05T00:10:23.990Z,1023.00
2023-05-05T00:11:24.000Z,1022.00
2023-05-05T00:12:24.003Z,1026.00
2023-05-05T00:13:24.055Z,1024.00
2023-05-05T00:14:24.051Z,1023.00
2023-05-05T00:15:24.058Z,1025.00
2023-05-05T00:16:24.122Z,1020.00
2023-05-05T00:17:24.110Z,1019.00
2023-05-05T00:18:24.106Z,1020.00
2023-05-05T00:19:24.078Z,1021.00
2023-05-05T00:20:24.099Z,1020.00
2023-05-05T00:21:24.147Z,1020.00
2023-05-05T00:22:24.152Z,1019.00
2023-05-05T00:23:24.149Z,1018.00
2023-05-05T00:24:24.166Z,1016.00
2023-05-05T00:25:24.146Z,1014.00
2023-05-05T00:26:24.190Z,1014.00
2023-05-05T00:27:24.222Z,1016.00
2023-05-05T00:28:24.228Z,1013.00
2023-05-05T00:29:24.224Z,1011.00
2023-05-05T00:30:24.234Z,1008.00
2023-05-05T00:31:24.267Z,1007.00
2023-05-05T00:32:24.280Z,1004.00
2023-05-05T00:33:24.285Z,1003.00
2023-05-05T00:34:24.292Z,1008.00
2023-05-05T00:35:24.315Z,1007.00
2023-05-05T00:36:24.330Z,1008.00
2023-05-05T00:37:24.372Z,1008.00
2023-05-05T00:38:24.350Z,1010.00
2023-05-05T00:39:24.359Z,1008.00
2023-05-05T00:40:24.377Z,1008.00
2023-05-05T00:41:24.395Z,1008.00
2023-05-05T00:42:24.791Z,1002.00
2023-05-05T00:43:24.403Z,999.00
2023-05-05T00:44:24.389Z,998.00
2023-05-05T00:45:24.390Z,999.00
2023-05-05T00:46:24.479Z,1001.00
2023-05-05T00:47:24.410Z,1000.00
2023-05-05T00:48:24.460Z,999.00
2023-05-05T00:49:24.542Z,998.00
2023-05-05T00:50:24.462Z,1001.00
2023-05-05T00:51:24.464Z,1001.00
2023-05-05T00:52:24.526Z,1000.00
2023-05-05T00:53:24.516Z,998.00
2023-05-05T00:54:24.548Z,994.00
2023-05-05T00:55:24.561Z,995.00
2023-05-05T00:56:24.576Z,992.00
2023-05-05T00:57:24.580Z,991.00
2023-05-05T00:58:24.558Z,990.00
2023-05-05T00:59:24.601Z,992.00
2023-05-05T01:00:24.612Z,995.00
2023-05-05T01:01:24.667Z,996.00
2023-05-05T01:02:24.789Z,994.00
2023-05-05T01:03:24.918Z,997.00
2023-05-05T01:04:24.677Z,997.00
2023-05-05T01:05:24.701Z,1000.00
2023-05-05T01:06:24.731Z,997.00
2023-05-05T01:07:24.702Z,995.00
2023-05-05T01:08:24.752Z,992.00
2023-05-05T01:09:24.753Z,988.00
2023-05-05T01:10:25.091Z,987.00
2023-05-05T01:11:24.803Z,982.00
2023-05-05T01:12:24.813Z,981.00
2023-05-05T01:13:24.832Z,980.00
2023-05-05T01:14:24.816Z,982.00
2023-05-05T01:15:24.874Z,982.00
2023-05-05T01:16:25.847Z,981.00
2023-05-05T01:17:24.941Z,976.00
2023-05-05T01:18:24.922Z,974.00
2023-05-05T01:19:24.931Z,972.00
2023-05-05T01:20:24.979Z,968.00
2023-05-05T01:21:24.962Z,970.00
2023-05-05T01:22:24.961Z,974.00
2023-05-05T01:23:25.004Z,972.00
2023-05-05T01:24:25.032Z,970.00
2023-05-05T01:25:25.076Z,968.00
2023-05-05T01:26:25.042Z,968.00
2023-05-05T01:27:25.081Z,973.00
2023-05-05T01:28:25.096Z,972.00
2023-05-05T01:29:25.124Z,970.00
2023-05-05T01:30:25.145Z,967.00
2023-05-05T01:31:25.156Z,965.00
2023-05-05T01:32:25.218Z,963.00
2023-05-05T01:33:25.177Z,960.00
2023-05-05T01:34:25.226Z,959.00
2023-05-05T01:35:25.246Z,957.00
2023-05-05T01:36:25.261Z,952.00
2023-05-05T01:37:25.264Z,956.00
2023-05-05T01:38:25.300Z,963.00
2023-05-05T01:39:25.346Z,967.00
2023-05-05T01:40:25.347Z,967.00
2023-05-05T01:41:25.359Z,968.00
2023-05-05T01:42:25.389Z,973.00
2023-05-05T01:43:25.396Z,972.00
2023-05-05T01:44:25.404Z,974.00
2023-05-05T01:45:25.413Z,969.00
2023-05-05T01:46:25.477Z,965.00
2023-05-05T01:47:25.554Z,962.00
2023-05-05T01:48:25.485Z,960.00
2023-05-05T01:49:25.528Z,960.00
2023-05-05T01:50:25.557Z,957.00
2023-05-05T01:51:25.598Z,955.00
2023-05-05T01:52:25.592Z,956.00
2023-05-05T01:53:25.614Z,952.00
2023-05-05T01:54:25.625Z,955.00
2023-05-05T01:55:25.691Z,953.00
2023-05-05T01:56:25.744Z,951.00
2023-05-05T01:57:25.744Z,948.00
2023-05-05T01:58:25.782Z,948.00
2023-05-05T01:59:25.763Z,949.00
2023-05-05T02:00:25.798Z,950.00
2023-05-05T02:01:25.871Z,950.00
2023-05-05T02:02:26.368Z,952.00
2023-05-05T02:03:25.893Z,949.00
2023-05-05T02:04:25.904Z,949.00
2023-05-05T02:05:25.889Z,953.00
2023-05-05T02:06:25.922Z,950.00
2023-05-05T02:07:25.944Z,950.00
2023-05-05T02:08:26.323Z,951.00
2023-05-05T02:09:26.028Z,952.00
2023-05-05T02:10:26.051Z,946.00
2023-05-05T02:11:26.062Z,944.00
2023-05-05T02:12:26.094Z,943.00
2023-05-05T02:13:26.232Z,945.00
2023-05-05T02:14:26.161Z,945.00
2023-05-05T02:15:26.208Z,947.00
2023-05-05T02:16:26.220Z,948.00
2023-05-05T02:17:26.294Z,946.00
2023-05-05T02:18:26.262Z,946.00
2023-05-05T02:19:26.312Z,948.00
2023-05-05T02:20:26.360Z,943.00
2023-05-05T02:21:26.348Z,940.00
2023-05-05T02:22:26.399Z,938.00
2023-05-05T02:23:26.486Z,936.00
2023-05-05T02:24:26.473Z,935.00
2023-05-05T02:25:26.462Z,927.00
2023-05-05T02:26:27.304Z,924.00
2023-05-05T02:27:26.523Z,927.00
2023-05-05T02:28:26.802Z,933.00
2023-05-05T02:29:26.593Z,933.00
2023-05-05T02:30:26.661Z,933.00
2023-05-05T02:31:26.698Z,932.00
2023-05-05T02:32:26.739Z,928.00
2023-05-05T02:33:26.784Z,933.00
2023-05-05T02:34:26.798Z,932.00
2023-05-05T02:35:26.812Z,933.00
2023-05-05T02:36:26.852Z,931.00
2023-05-05T02:37:26.911Z,933.00
2023-05-05T02:38:27.281Z,931.00
2023-05-05T02:39:26.961Z,932.00
2023-05-05T02:40:27.007Z,929.00
2023-05-05T02:41:27.045Z,930.00
2023-05-05T02:42:27.093Z,930.00
2023-05-05T02:43:27.126Z,926.00
2023-05-05T02:44:27.128Z,924.00
2023-05-05T02:45:27.166Z,926.00
2023-05-05T02:46:27.272Z,926.00
2023-05-05T02:47:27.278Z,921.00
2023-05-05T02:48:27.307Z,922.00
2023-05-05T02:49:27.299Z,917.00
2023-05-05T02:50:27.317Z,920.00
2023-05-05T02:51:27.342Z,920.00
2023-05-05T02:52:27.399Z,920.00
2023-05-05T02:53:27.441Z,917.00
2023-05-05T02:54:27.482Z,919.00
2023-05-05T02:55:27.502Z,920.00
2023-05-05T02:56:27.518Z,919.00
2023-05-05T02:57:27.524Z,918.00
2023-05-05T02:58:27.604Z,918.00
2023-05-05T02:59:27.606Z,917.00
2023-05-05T03:00:27.645Z,919.00
2023-05-05T03:01:27.761Z,918.00
2023-05-05T03:02:27.778Z,920.00
2023-05-05T03:03:27.869Z,918.00
2023-05-05T03:04:27.791Z,921.00
2023-05-05T03:05:27.836Z,918.00
2023-05-05T03:06:27.839Z,918.00
2023-05-05T03:07:27.872Z,919.00
2023-05-05T03:08:27.923Z,914.00
2023-05-05T03:09:27.940Z,909.00
2023-05-05T03:10:27.996Z,911.00
2023-05-05T03:11:28.007Z,913.00
2023-05-05T03:12:28.047Z,912.00
2023-05-05T03:13:28.093Z,912.00
2023-05-05T03:14:28.150Z,908.00
2023-05-05T03:15:28.169Z,907.00
2023-05-05T03:16:28.221Z,904.00
2023-05-05T03:17:28.284Z,905.00
2023-05-05T03:18:28.285Z,907.00
2023-05-05T03:19:28.325Z,908.00
2023-05-05T03:20:28.338Z,912.00
2023-05-05T03:21:28.388Z,907.00
2023-05-05T03:22:28.428Z,906.00
2023-05-05T03:23:28.501Z,909.00
2023-05-05T03:24:28.537Z,909.00
2023-05-05T03:25:28.552Z,908.00
2023-05-05T03:26:28.538Z,906.00
2023-05-05T03:27:28.579Z,902.00
2023-05-05T03:28:28.641Z,899.00
2023-05-05T03:29:28.668Z,897.00
2023-05-05T03:30:28.754Z,899.00
2023-05-05T03:31:28.797Z,900.00
2023-05-05T03:32:28.819Z,901.00
2023-05-05T03:33:28.826Z,898.00
2023-05-05T03:34:28.891Z,899.00
2023-05-05T03:35:28.934Z,897.00
2023-05-05T03:36:29.523Z,893.00
2023-05-05T03:37:28.974Z,893.00
2023-05-05T03:38:28.995Z,890.00
2023-05-05T03:39:29.035Z,891.00
2023-05-05T03:40:40.335Z,892.00
2023-05-05T03:41:30.073Z,893.00
2023-05-05T03:42:29.088Z,889.00
2023-05-05T03:43:29.080Z,890.00
2023-05-05T03:44:29.076Z,890.00
2023-05-05T03:45:29.096Z,889.00
2023-05-05T03:46:29.076Z,890.00
2023-05-05T03:47:29.097Z,887.00
2023-05-05T03:48:29.039Z,885.00
2023-05-05T03:49:29.025Z,884.00
2023-05-05T03:50:29.030Z,884.00
2023-05-05T03:51:29.008Z,886.00
2023-05-05T03:52:29.036Z,888.00
2023-05-05T03:53:29.078Z,890.00
2023-05-05T03:54:29.084Z,890.00
2023-05-05T03:55:29.132Z,886.00
2023-05-05T03:56:29.213Z,886.00
2023-05-05T03:57:29.218Z,883.00
2023-05-05T03:58:29.258Z,881.00
2023-05-05T03:59:29.342Z,881.00
2023-05-05T04:00:29.393Z,886.00
2023-05-05T04:01:29.408Z,881.00
2023-05-05T04:02:29.510Z,878.00
2023-05-05T04:03:29.537Z,875.00
2023-05-05T04:04:29.597Z,874.00
2023-05-05T04:05:29.577Z,873.00
2023-05-05T04:06:29.606Z,873.00
2023-05-05T04:07:29.621Z,876.00
2023-05-05T04:08:29.829Z,878.00
2023-05-05T04:09:29.754Z,880.00
2023-05-05T04:10:29.744Z,883.00
2023-05-05T04:11:29.802Z,883.00
2023-05-05T04:12:29.903Z,883.00
2023-05-05T04:13:29.903Z,881.00
2023-05-05T04:14:29.929Z,879.00
2023-05-05T04:15:29.953Z,879.00
2023-05-05T04:16:30.091Z,879.00
2023-05-05T04:17:30.021Z,882.00
2023-05-05T04:18:30.048Z,882.00
2023-05-05T04:19:30.081Z,882.00
2023-05-05T04:20:30.126Z,883.00
2023-05-05T04:21:30.174Z,882.00
2023-05-05T04:22:30.251Z,882.00
2023-05-05T04:23:30.233Z,887.00
2023-05-05T04:24:30.296Z,884.00
2023-05-05T04:25:30.345Z,879.00
2023-05-05T04:26:30.404Z,883.00
2023-05-05T04:27:31.346Z,884.00
2023-05-05T04:28:30.504Z,882.00
2023-05-05T04:29:30.529Z,879.00
2023-05-05T04:30:30.610Z,878.00
2023-05-05T04:31:30.673Z,878.00
2023-05-05T04:32:30.642Z,875.00
2023-05-05T04:33:30.708Z,872.00
2023-05-05T04:34:30.729Z,873.00
2023-05-05T04:35:30.770Z,872.00
2023-05-05T04:36:30.845Z,869.00
2023-05-05T04:37:30.865Z,864.00
2023-05-05T04:38:30.970Z,865.00
2023-05-05T04:39:30.974Z,864.00
2023-05-05T04:40:31.016Z,860.00
2023-05-05T04:41:31.063Z,858.00
2023-05-05T04:42:31.113Z,861.00
2023-05-05T04:43:31.140Z,861.00
2023-05-05T04:44:31.192Z,858.00
2023-05-05T04:45:31.221Z,858.00
2023-05-05T04:46:31.351Z,859.00
2023-05-05T04:47:31.361Z,859.00
2023-05-05T04:48:31.348Z,862.00
2023-05-05T04:49:31.391Z,862.00
2023-05-05T04:50:31.471Z,863.00
2023-05-05T04:51:31.497Z,862.00
2023-05-05T04:52:31.519Z,860.00
2023-05-05T04:53:31.593Z,860.00
2023-05-05T04:54:31.615Z,855.00
2023-05-05T04:55:31.673Z,850.00
2023-05-05T04:56:31.740Z,856.00
2023-05-05T04:57:31.752Z,857.00
2023-05-05T04:58:31.813Z,857.00
2023-05-05T04:59:31.848Z,854.00
2023-05-05T05:00:31.867Z,852.00
2023-05-05T05:01:31.938Z,855.00
2023-05-05T05:02:32.087Z,853.00
2023-05-05T05:03:32.502Z,855.00
2023-05-05T05:04:32.070Z,851.00
2023-05-05T05:05:32.133Z,845.00
2023-05-05T05:06:32.155Z,845.00
2023-05-05T05:07:32.210Z,848.00
2023-05-05T05:08:32.240Z,846.00
2023-05-05T05:09:32.292Z,850.00
2023-05-05T05:10:32.323Z,851.00
2023-05-05T05:11:32.405Z,847.00
2023-05-05T05:12:32.491Z,845.00
2023-05-05T05:13:32.490Z,844.00
2023-05-05T05:14:32.516Z,845.00
2023-05-05T05:15:32.567Z,843.00
2023-05-05T05:16:32.655Z,843.00
2023-05-05T05:17:32.654Z,845.00
2023-05-05T05:18:32.726Z,843.00
2023-05-05T05:19:32.713Z,839.00
2023-05-05T05:20:32.806Z,837.00
2023-05-05T05:21:32.856Z,838.00
2023-05-05T05:22:33.015Z,837.00
2023-05-05T05:23:33.017Z,838.00
2023-05-05T05:24:33.031Z,835.00
2023-05-05T05:25:33.084Z,835.00
2023-05-05T05:26:33.080Z,831.00
2023-05-05T05:27:33.140Z,832.00
2023-05-05T05:28:33.373Z,835.00
2023-05-05T05:29:33.184Z,834.00
2023-05-05T05:30:33.246Z,833.00
2023-05-05T05:31:33.327Z,834.00
2023-05-05T05:32:33.359Z,836.00
2023-05-05T05:33:33.889Z,836.00
2023-05-05T05:34:33.432Z,834.00
2023-05-05T05:35:33.473Z,830.00
2023-05-05T05:36:33.504Z,830.00
2023-05-05T05:37:33.547Z,830.00
2023-05-05T05:38:33.860Z,832.00
2023-05-05T05:39:33.651Z,826.00
2023-05-05T05:40:33.655Z,826.00
2023-05-05T05:41:33.716Z,829.00
2023-05-05T05:42:33.762Z,831.00
2023-05-05T05:43:33.804Z,831.00
2023-05-05T05:44:33.859Z,836.00
2023-05-05T05:45:33.874Z,831.00
2023-05-05T05:46:34.000Z,824.00
2023-05-05T05:47:33.961Z,828.00
2023-05-05T05:48:34.002Z,830.00
2023-05-05T05:49:34.033Z,828.00
2023-05-05T05:50:34.046Z,823.00
2023-05-05T05:51:34.137Z,831.00
2023-05-05T05:52:34.168Z,830.00
2023-05-05T05:53:34.209Z,832.00
2023-05-05T05:54:34.242Z,834.00
2023-05-05T05:55:34.277Z,836.00
2023-05-05T05:56:34.308Z,831.00
2023-05-05T05:57:34.368Z,831.00
2023-05-05T05:58:34.861Z,831.00
2023-05-05T05:59:34.414Z,829.00
2023-05-05T06:00:34.485Z,826.00
2023-05-05T06:01:34.506Z,827.00
2023-05-05T06:02:34.571Z,826.00
2023-05-05T06:03:34.903Z,881.00
2023-05-05T06:04:34.704Z,951.00
2023-05-05T06:05:34.665Z,975.00
2023-05-05T06:06:34.691Z,984.00
2023-05-05T06:07:34.732Z,968.00
2023-05-05T06:08:34.902Z,961.00
2023-05-05T06:09:34.744Z,943.00
2023-05-05T06:10:35.247Z,927.00
2023-05-05T06:11:34.821Z,852.00
2023-05-05T06:12:34.893Z,824.00
2023-05-05T06:13:34.866Z,824.00
2023-05-05T06:14:34.928Z,812.00
2023-05-05T06:15:34.963Z,799.00
2023-05-05T06:16:34.989Z,820.00
2023-05-05T06:17:34.953Z,808.00
2023-05-05T06:18:35.016Z,807.00
2023-05-05T06:19:35.016Z,810.00
2023-05-05T06:20:35.036Z,809.00
2023-05-05T06:21:35.092Z,815.00
2023-05-05T06:22:35.099Z,807.00
2023-05-05T06:23:35.400Z,818.00
2023-05-05T06:24:35.126Z,815.00
2023-05-05T06:25:35.162Z,814.00
2023-05-05T06:26:35.169Z,800.00
2023-05-05T06:27:35.221Z,788.00
2023-05-05T06:28:35.242Z,818.00
2023-05-05T06:29:35.224Z,804.00
2023-05-05T06:30:35.252Z,811.00
2023-05-05T06:31:35.333Z,798.00
2023-05-05T06:32:35.242Z,784.00
2023-05-05T06:33:35.384Z,782.00
2023-05-05T06:34:35.287Z,802.00
2023-05-05T06:35:35.309Z,797.00
2023-05-05T06:36:35.330Z,791.00
2023-05-05T06:37:35.321Z,791.00
2023-05-05T06:38:35.388Z,794.00
2023-05-05T06:39:35.347Z,781.00
2023-05-05T06:40:35.343Z,771.00
2023-05-05T06:41:35.344Z,760.00
2023-05-05T06:42:35.364Z,747.00
2023-05-05T06:43:35.348Z,743.00
2023-05-05T06:44:35.397Z,735.00
2023-05-05T06:45:35.386Z,747.00
2023-05-05T06:46:35.501Z,742.00
2023-05-05T06:47:35.429Z,748.00
2023-05-05T06:48:35.380Z,756.00
2023-05-05T06:49:35.388Z,765.00
2023-05-05T06:50:35.388Z,756.00
2023-05-05T06:51:35.400Z,732.00
2023-05-05T06:52:35.399Z,735.00
2023-05-05T06:53:35.428Z,749.00
2023-05-05T06:54:35.433Z,746.00
2023-05-05T06:55:35.432Z,727.00
2023-05-05T06:56:35.424Z,734.00
2023-05-05T06:57:35.512Z,757.00
2023-05-05T06:58:35.895Z,784.00
2023-05-05T06:59:35.418Z,794.00
2023-05-05T07:00:35.509Z,793.00
2023-05-05T07:01:36.393Z,799.00
2023-05-05T07:02:35.442Z,851.00
2023-05-05T07:03:35.883Z,894.00
2023-05-05T07:04:35.452Z,895.00
2023-05-05T07:05:35.480Z,895.00
2023-05-05T07:06:35.460Z,891.00
2023-05-05T07:07:35.474Z,884.00
2023-05-05T07:08:35.526Z,885.00
2023-05-05T07:09:35.526Z,900.00
2023-05-05T07:10:35.558Z,909.00
2023-05-05T07:11:35.610Z,909.00
2023-05-05T07:12:35.657Z,912.00
2023-05-05T07:13:36.052Z,917.00
2023-05-05T07:14:35.732Z,919.00
2023-05-05T07:15:35.770Z,924.00
2023-05-05T07:16:35.868Z,927.00
2023-05-05T07:17:35.918Z,931.00
2023-05-05T07:18:35.933Z,938.00
2023-05-05T07:19:35.978Z,959.00
2023-05-05T07:20:36.017Z,966.00
2023-05-05T07:21:36.088Z,971.00
2023-05-05T07:22:36.120Z,973.00
2023-05-05T07:23:36.374Z,982.00
2023-05-05T07:24:36.243Z,991.00
2023-05-05T07:25:36.316Z,1009.00
2023-05-05T07:26:36.360Z,1123.00
2023-05-05T07:27:36.433Z,1132.00
2023-05-05T07:28:36.510Z,1127.00
2023-05-05T07:29:36.626Z,1118.00
2023-05-05T07:30:36.619Z,1121.00
2023-05-05T07:31:36.683Z,1119.00
2023-05-05T07:32:36.772Z,1107.00
2023-05-05T07:33:36.782Z,1103.00
2023-05-05T07:34:36.868Z,1101.00
2023-05-05T07:35:36.895Z,1115.00
2023-05-05T07:36:36.979Z,1125.00
2023-05-05T07:37:37.036Z,1117.00
2023-05-05T07:38:37.381Z,1114.00
2023-05-05T07:39:37.137Z,1235.00
2023-05-05T07:40:37.164Z,1245.00
2023-05-05T07:41:37.186Z,1255.00
2023-05-05T07:42:37.259Z,1262.00
2023-05-05T07:43:39.272Z,1254.00
2023-05-05T07:44:37.377Z,1229.00
2023-05-05T07:45:37.477Z,1223.00
2023-05-05T07:46:37.578Z,1225.00
2023-05-05T07:47:37.597Z,1240.00
2023-05-05T07:48:37.617Z,1305.00
2023-05-05T07:49:37.628Z,1336.00
2023-05-05T07:50:37.654Z,1344.00
2023-05-05T07:51:37.727Z,1346.00
2023-05-05T07:52:46.122Z,1386.00
2023-05-05T07:53:38.710Z,1406.00
2023-05-05T07:54:37.718Z,1413.00
2023-05-05T07:55:37.718Z,1447.00
2023-05-05T07:56:37.710Z,1464.00
2023-05-05T07:57:37.686Z,1464.00
2023-05-05T07:58:37.701Z,1473.00
2023-05-05T07:59:37.725Z,1476.00
2023-05-05T08:00:37.675Z,1484.00
2023-05-05T08:01:37.847Z,1495.00
2023-05-05T08:02:37.760Z,1506.00
2023-05-05T08:03:37.957Z,1552.00
2023-05-05T08:04:37.937Z,1571.00
2023-05-05T08:05:37.652Z,1705.00
2023-05-05T08:06:37.667Z,1666.00
2023-05-05T08:07:37.668Z,1674.00
2023-05-05T08:08:37.723Z,1713.00
2023-05-05T08:09:37.727Z,1729.00
2023-05-05T08:10:37.720Z,1732.00
2023-05-05T08:11:37.723Z,1737.00
2023-05-05T08:12:37.863Z,1760.00
2023-05-05T08:13:37.770Z,1775.00
2023-05-05T08:14:37.912Z,1773.00
2023-05-05T08:15:37.820Z,1783.00
2023-05-05T08:16:37.818Z,1807.00
2023-05-05T08:17:37.912Z,1849.00
2023-05-05T08:18:37.859Z,1837.00
2023-05-05T08:19:37.848Z,1776.00
2023-05-05T08:20:37.887Z,1823.00
2023-05-05T08:21:37.908Z,1822.00
2023-05-05T08:22:37.914Z,1814.00
2023-05-05T08:23:37.948Z,1791.00
2023-05-05T08:24:38.426Z,1764.00
2023-05-05T08:25:38.007Z,1774.00
2023-05-05T08:26:38.041Z,1785.00
2023-05-05T08:27:38.074Z,1786.00
2023-05-05T08:28:38.093Z,1780.00
2023-05-05T08:29:38.417Z,1785.00
2023-05-05T08:30:38.119Z,1783.00
2023-05-05T08:31:38.275Z,1781.00
2023-05-05T08:32:38.199Z,1779.00
2023-05-05T08:33:38.270Z,1773.00
2023-05-05T08:34:38.436Z,1763.00
2023-05-05T08:35:38.243Z,1748.00
2023-05-05T08:36:38.261Z,1747.00
2023-05-05T08:37:38.278Z,1718.00
2023-05-05T08:38:38.305Z,1713.00
2023-05-05T08:39:38.321Z,1717.00
2023-05-05T08:40:38.320Z,1728.00
2023-05-05T08:41:38.366Z,1752.00
2023-05-05T08:42:39.423Z,1740.00
2023-05-05T08:43:38.376Z,1811.00
2023-05-05T08:44:38.399Z,1804.00
2023-05-05T08:45:38.407Z,1800.00
2023-05-05T08:46:38.515Z,1799.00
2023-05-05T08:47:38.545Z,1810.00
2023-05-05T08:48:38.466Z,1857.00
2023-05-05T08:49:38.583Z,1867.00
2023-05-05T08:50:38.490Z,1875.00
2023-05-05T08:51:38.473Z,1891.00
2023-05-05T08:52:38.481Z,1916.00
2023-05-05T08:53:38.487Z,1939.00
2023-05-05T08:54:38.942Z,1954.00
2023-05-05T08:55:38.489Z,1991.00
2023-05-05T08:56:38.500Z,2010.00
2023-05-05T08:57:38.472Z,2021.00
2023-05-05T08:58:38.471Z,2064.00
2023-05-05T08:59:38.551Z,2084.00
2023-05-05T09:00:38.550Z,2102.00
2023-05-05T09:01:38.523Z,2127.00
2023-05-05T09:02:38.533Z,2143.00
2023-05-05T09:03:38.529Z,2163.00
2023-05-05T09:04:38.915Z,2189.00
2023-05-05T09:05:38.569Z,2232.00
2023-05-05T09:06:38.512Z,2221.00
2023-05-05T09:07:38.539Z,2305.00
2023-05-05T09:08:38.500Z,2237.00
2023-05-05T09:09:38.480Z,2251.00
2023-05-05T09:10:38.480Z,2256.00
2023-05-05T09:11:38.454Z,2311.00
2023-05-05T09:12:38.505Z,2319.00
2023-05-05T09:13:38.473Z,2326.00
2023-05-05T09:14:38.975Z,2331.00
2023-05-05T09:15:38.504Z,2351.00
2023-05-05T09:16:38.556Z,2375.00
2023-05-05T09:17:38.546Z,2436.00
2023-05-05T09:18:38.551Z,2436.00
2023-05-05T09:19:38.509Z,2436.00
2023-05-05T09:20:38.559Z,2508.00
2023-05-05T09:21:39.187Z,2510.00
2023-05-05T09:22:38.558Z,2524.00
2023-05-05T09:23:38.571Z,2546.00
2023-05-05T09:24:38.566Z,2554.00
2023-05-05T09:25:38.567Z,2592.00
2023-05-05T09:26:38.562Z,2601.00
2023-05-05T09:27:38.565Z,2615.00
2023-05-05T09:28:38.574Z,2614.00
2023-05-05T09:29:38.627Z,2625.00
2023-05-05T09:30:38.608Z,2644.00
2023-05-05T09:31:38.620Z,2678.00
2023-05-05T09:32:38.610Z,2718.00
2023-05-05T09:33:38.584Z,2800.00
2023-05-05T09:34:38.941Z,2780.00
2023-05-05T09:35:38.596Z,2779.00
2023-05-05T09:36:38.568Z,2786.00
2023-05-05T09:37:38.775Z,2800.00
2023-05-05T09:38:38.575Z,2805.00
2023-05-05T09:39:38.931Z,2884.00
2023-05-05T09:40:38.581Z,2872.00
2023-05-05T09:41:38.589Z,2875.00
2023-05-05T09:42:38.594Z,2881.00
2023-05-05T09:43:38.564Z,2892.00
2023-05-05T09:44:38.950Z,2901.00
2023-05-05T09:45:38.577Z,2993.00
2023-05-05T09:46:38.686Z,2965.00
2023-05-05T09:47:38.652Z,2942.00
2023-05-05T09:48:38.570Z,2930.00
2023-05-05T09:49:38.946Z,2928.00
2023-05-05T09:50:38.571Z,2926.00
2023-05-05T09:51:38.558Z,2934.00
2023-05-05T09:52:38.584Z,2987.00
2023-05-05T09:53:38.633Z,3006.00
2023-05-05T09:54:38.573Z,3048.00
2023-05-05T09:55:38.598Z,3094.00
2023-05-05T09:56:38.618Z,3108.00
2023-05-05T09:57:38.623Z,3115.00
2023-05-05T09:58:38.664Z,3152.00
2023-05-05T09:59:38.625Z,3092.00
2023-05-05T10:00:38.695Z,2982.00
2023-05-05T10:01:38.714Z,2948.00
2023-05-05T10:02:38.743Z,3048.00
2023-05-05T10:03:38.662Z,3046.00
2023-05-05T10:04:38.643Z,3057.00
2023-05-05T10:05:38.635Z,3073.00
2023-05-05T10:06:38.624Z,3073.00
2023-05-05T10:07:38.631Z,3079.00
2023-05-05T10:08:38.618Z,3081.00
2023-05-05T10:09:38.631Z,3157.00
2023-05-05T10:10:38.718Z,3171.00
2023-05-05T10:11:38.669Z,3172.00
2023-05-05T10:12:38.768Z,3196.00
2023-05-05T10:13:38.659Z,3201.00
2023-05-05T10:14:38.939Z,3190.00
2023-05-05T10:15:38.638Z,3122.00
2023-05-05T10:16:38.718Z,3108.00
2023-05-05T10:17:38.719Z,3100.00
2023-05-05T10:18:38.796Z,3110.00
2023-05-05T10:19:38.950Z,3224.00
2023-05-05T10:20:38.733Z,3225.00
2023-05-05T10:21:40.213Z,3226.00
2023-05-05T10:22:38.634Z,3231.00
2023-05-05T10:23:38.628Z,3238.00
2023-05-05T10:24:38.642Z,3235.00
2023-05-05T10:25:38.604Z,3234.00
2023-05-05T10:26:38.612Z,3252.00
2023-05-05T10:27:38.581Z,3302.00
2023-05-05T10:28:38.607Z,3319.00
2023-05-05T10:29:38.991Z,3305.00
2023-05-05T10:30:38.611Z,3307.00
2023-05-05T10:31:38.595Z,3312.00
2023-05-05T10:33:38.695Z,3414.00
2023-05-05T10:34:39.063Z,3404.00
2023-05-05T10:35:38.592Z,3394.00
2023-05-05T10:36:38.711Z,3432.00
2023-05-05T10:37:38.583Z,3466.00
2023-05-05T10:38:38.497Z,3486.00
2023-05-05T10:39:38.983Z,3470.00
2023-05-05T10:40:38.507Z,3542.00
2023-05-05T10:41:38.605Z,3517.00
2023-05-05T10:42:38.534Z,3555.00
2023-05-05T10:43:38.495Z,3521.00
2023-05-05T10:44:38.994Z,3476.00
2023-05-05T10:45:38.610Z,3445.00
2023-05-05T10:46:38.626Z,3483.00
2023-05-05T10:47:38.475Z,3461.00
2023-05-05T10:48:38.481Z,3329.00
2023-05-05T10:49:38.469Z,3343.00
2023-05-05T10:50:38.471Z,3336.00
2023-05-05T10:52:38.416Z,3281.00
2023-05-05T10:53:38.433Z,3311.00
2023-05-05T10:54:38.631Z,3318.00
2023-05-05T10:55:38.436Z,3320.00
2023-05-05T10:56:38.386Z,3319.00
2023-05-05T10:57:38.640Z,3326.00
2023-05-05T10:58:51.308Z,3342.00
2023-05-05T10:59:39.470Z,3365.00
2023-05-05T11:00:38.402Z,3376.00
2023-05-05T11:01:38.398Z,3458.00
2023-05-05T11:02:38.387Z,3291.00
2023-05-05T11:03:38.411Z,3282.00
2023-05-05T11:04:38.343Z,3408.00
2023-05-05T11:05:38.373Z,3427.00
2023-05-05T11:06:38.313Z,3409.00
2023-05-05T11:07:38.342Z,3405.00
2023-05-05T11:08:38.300Z,3426.00
2023-05-05T11:09:38.311Z,3442.00
2023-05-05T11:10:38.317Z,3440.00
2023-05-05T11:11:38.311Z,3436.00
2023-05-05T11:12:38.963Z,3447.00
2023-05-05T11:13:38.417Z,3518.00
2023-05-05T11:14:38.271Z,3482.00
2023-05-05T11:15:38.293Z,3477.00
2023-05-05T11:16:38.315Z,3478.00
2023-05-05T11:17:38.278Z,3467.00
2023-05-05T11:18:38.287Z,3441.00
2023-05-05T11:19:38.500Z,3392.00
2023-05-05T11:20:38.234Z,3362.00
2023-05-05T11:21:38.222Z,3363.00
2023-05-05T11:22:38.221Z,3363.00
2023-05-05T11:23:38.217Z,3403.00
2023-05-05T11:24:38.555Z,3431.00
2023-05-05T11:25:38.375Z,3442.00
2023-05-05T11:26:38.228Z,3481.00
2023-05-05T11:27:38.204Z,3492.00
2023-05-05T11:28:38.180Z,3460.00
2023-05-05T11:29:38.258Z,3504.00
2023-05-05T11:30:38.503Z,3509.00
2023-05-05T11:31:38.297Z,3479.00
2023-05-05T11:32:38.193Z,3407.00
2023-05-05T11:33:38.188Z,3415.00
2023-05-05T11:34:38.134Z,3398.00
2023-05-05T11:35:38.494Z,3389.00
2023-05-05T11:36:38.151Z,3341.00
2023-05-05T11:37:38.141Z,3301.00
2023-05-05T11:38:38.137Z,3271.00
2023-05-05T11:39:38.140Z,3156.00
2023-05-05T11:40:38.542Z,2980.00
2023-05-05T11:41:38.170Z,2936.00
2023-05-05T11:42:38.185Z,2956.00
2023-05-05T11:43:38.175Z,2956.00
2023-05-05T11:44:38.180Z,2915.00
2023-05-05T11:45:38.629Z,2827.00
2023-05-05T11:46:38.280Z,2847.00
2023-05-05T11:47:38.260Z,2849.00
2023-05-05T11:48:38.216Z,2844.00
2023-05-05T11:49:38.246Z,2855.00
2023-05-05T11:50:38.491Z,2895.00
2023-05-05T11:51:38.273Z,2882.00
2023-05-05T11:52:38.274Z,2872.00
2023-05-05T11:53:38.325Z,2863.00
2023-05-05T11:54:38.348Z,2849.00
2023-05-05T11:55:38.371Z,2848.00
2023-05-05T11:56:38.696Z,2852.00
2023-05-05T11:57:38.408Z,2846.00
2023-05-05T11:58:38.416Z,2846.00
2023-05-05T11:59:38.419Z,2842.00
2023-05-05T12:00:38.493Z,2841.00
2023-05-05T12:01:38.503Z,2836.00
2023-05-05T12:02:38.531Z,2835.00
2023-05-05T12:03:38.738Z,2829.00
2023-05-05T12:04:38.602Z,2828.00
2023-05-05T12:05:38.983Z,2833.00
2023-05-05T12:06:38.575Z,2829.00
2023-05-05T12:07:38.569Z,2823.00
2023-05-05T12:08:38.595Z,2823.00
2023-05-05T12:09:38.603Z,2820.00
2023-05-05T12:10:38.991Z,2816.00
2023-05-05T12:11:38.651Z,2818.00
2023-05-05T12:12:38.765Z,2807.00
2023-05-05T12:13:38.701Z,2800.00
2023-05-05T12:14:38.740Z,2788.00
2023-05-05T12:15:39.023Z,2778.00
2023-05-05T12:16:38.801Z,2762.00
2023-05-05T12:17:38.948Z,2754.00
2023-05-05T12:18:38.862Z,2755.00
2023-05-05T12:19:38.850Z,2759.00